Latest Coastal Weather Observations for Hamilton Island

IDQ60701

Issued at 7:55 am EST Friday 22 August 2014 (issued every 10 minutes, with the page automatically refreshed every 10 minutes)

About coastal observations | Map of coastal stations | Coastal observations for QLD | Marine services | Other Formats
Station Details ID: 033106 Name: HAMILTON ISLAND AIRPORT Lat: -20.37 Lon: 148.95 Height: 58.66 m
Data from the previous 72 hours. | See also: Recent months at Hamilton Island
Date/Time
EST
Temp

°C
Wind Pressure Rain
since 9am
mm
Weather Cloud Vis
km
Sea
Height
m
Swell
Dir
 
Speed
knots
Gust
knots
hPa Trend Height
m
Period
s
Dir
22/07:30am 18.7 SSE 19 22 1020.4 - 0.0 - Cloudy 10 - - - -
22/07:00am 18.2 SSE 16 22 1020.0 - 0.0 - Partly cloudy 10 - - - -
22/06:56am 18.3 SSE 16 21 1020.0 - 0.0 - Partly cloudy 10 - - - -
22/06:30am 18.2 SSE 18 22 1019.6 - 0.0 - Partly cloudy 10 - - - -
22/06:02am 18.3 SSE 18 22 1019.4 - 0.0 - Partly cloudy 10 - - - -
22/06:00am 18.4 SSE 18 22 1019.2 - 0.0 - Cloudy 10 - - - -
22/05:30am 18.6 SSE 16 20 1018.8 - 0.0 - Partly cloudy 10 - - - -
22/05:00am 18.8 SE 14 17 1018.3 - 0.0 - Partly cloudy 10 - - - -
22/04:52am 18.7 SE 14 17 1018.1 - 0.0 - Partly cloudy 10 - - - -
22/04:30am 18.7 SE 15 17 1018.1 - 0.0 - - 10 - - - -
22/04:00am 18.7 SE 17 20 1017.8 - 0.0 - Partly cloudy 10 - - - -
22/03:30am 19.1 SE 18 21 1017.8 - 0.0 - Partly cloudy 10 - - - -
22/03:02am 18.9 SSE 18 20 1018.0 - 0.0 - Partly cloudy 10 - - - -
22/03:00am 19.0 SSE 17 20 1017.9 - 0.0 - Cloudy 10 - - - -
22/02:37am 18.8 SSE 15 19 1018.1 - 0.0 - Partly cloudy 10 - - - -
22/02:30am 18.8 SSE 16 19 1018.2 - 0.0 - Partly cloudy 10 - - - -
22/02:27am 19.0 SSE 16 19 1018.2 - 0.0 - Partly cloudy 10 - - - -
22/02:03am 19.1 SE 18 20 1018.4 - 0.0 - Partly cloudy 10 - - - -
22/02:00am 19.2 SE 17 20 1018.4 - 0.0 - Partly cloudy 10 - - - -
22/01:30am 19.1 SE 15 17 1018.7 - 0.0 - Partly cloudy 10 - - - -
22/01:00am 19.2 SE 16 17 1018.9 - 0.0 - Partly cloudy 10 - - - -
22/12:30am 19.2 SE 13 16 1019.2 - 0.0 - Cloudy 10 - - - -
22/12:26am 19.1 SE 13 16 1019.4 - 0.0 - Partly cloudy 10 - - - -
22/12:13am 19.3 SE 14 16 1019.5 - 0.0 - Partly cloudy 10 - - - -
22/12:00am 19.3 SE 14 17 1019.3 - 0.0 - Cloudy 10 - - - -
 
Date/Time
EST
Temp

°C
Wind Pressure Rain
since 9am
mm
Weather Cloud Vis
km
Sea
Height
m
Swell
Dir
 
Speed
knots
Gust
knots
hPa Trend Height
m
Period
s
Dir
21/11:30pm 19.4 ESE 15 18 1019.4 - 0.0 - Partly cloudy 10 - - - -
21/11:00pm 19.4 ESE 14 16 1019.6 - 0.0 - Partly cloudy 10 - - - -
21/10:30pm 19.4 ESE 12 15 1020.0 - 0.0 - Partly cloudy 10 - - - -
21/10:00pm 19.4 ESE 12 14 1019.8 - 0.0 - Partly cloudy 10 - - - -
21/09:56pm 19.5 ESE 11 13 1019.9 - 0.0 - Partly cloudy 10 - - - -
21/09:31pm 19.2 ESE 10 12 1019.9 - 0.0 - Partly cloudy 10 - - - -
21/09:30pm 19.2 ESE 10 12 1019.9 - 0.0 - Partly cloudy 10 - - - -
21/09:00pm 19.2 ESE 12 13 1019.7 - 0.0 - Cloudy 10 - - - -
21/08:30pm 19.2 ESE 11 13 1019.7 - 0.0 - Partly cloudy 10 - - - -
21/08:00pm 19.3 ESE 12 14 1019.5 - 0.0 - Partly cloudy 10 - - - -
21/07:30pm 19.1 ESE 11 14 1019.1 - 0.0 - Partly cloudy 10 - - - -
21/07:00pm 19.0 SE 13 15 1018.9 - 0.0 - Partly cloudy 10 - - - -
21/06:30pm 18.9 SE 13 15 1018.5 - 0.0 - Partly cloudy 10 - - - -
21/06:00pm 19.0 ESE 12 15 1018.1 - 0.0 - Cloudy 10 - - - -
21/05:47pm 19.2 SE 12 15 1018.0 - 0.0 - Partly cloudy 10 - - - -
21/05:30pm 19.3 SE 12 14 1017.9 - 0.0 - Partly cloudy 10 - - - -
21/05:00pm 19.4 SE 12 15 1017.6 - 0.0 - Partly cloudy 10 - - - -
21/04:30pm 19.7 SE 12 14 1017.4 - 0.0 - - 10 - - - -
21/04:00pm 20.0 SE 12 16 1017.2 - 0.0 - Partly cloudy 10 - - - -
21/03:30pm 19.8 SSE 14 17 1017.1 - 0.0 - Partly cloudy 10 - - - -
21/03:00pm 20.5 SE 14 16 1016.9 - 0.0 - Cloudy 10 - - - -
21/02:30pm 20.1 SSE 13 16 1017.1 - 0.0 - Cloudy 10 - - - -
21/02:00pm 20.6 SSE 13 16 1017.3 - 0.0 - Partly cloudy 10 - - - -
21/01:30pm 20.7 SSE 13 16 1017.6 - 0.0 - Cloudy 10 - - - -
21/01:00pm 20.0 SSE 13 16 1018.1 - 0.0 - Partly cloudy 10 - - - -
21/12:30pm 20.5 SSE 13 16 1018.5 - 0.0 - Partly cloudy 10 - - - -
21/12:00pm 20.9 SSE 13 16 1018.8 - 0.0 - Cloudy 10 - - - -
21/11:30am 20.2 SSE 13 17 1019.4 - 0.0 - Cloudy 10 - - - -
21/11:00am 20.2 SSE 13 16 1019.8 - 0.0 - Partly cloudy 10 - - - -
21/10:30am 20.8 SSE 13 16 1020.1 - 0.0 - - 10 - - - -
21/10:00am 20.4 SSE 13 16 1020.1 - 0.0 - - 10 - - - -
21/09:30am 20.5 SSE 13 15 1020.2 - 0.0 - - 10 - - - -
21/09:00am 20.4 SSE 14 16 1019.7 - 0.0 - - 10 - - - -
21/08:30am 20.1 SSE 14 16 1019.7 - 0.0 - - 10 - - - -
21/08:00am 19.6 SSE 14 16 1019.2 - 0.0 - - 10 - - - -
21/07:30am 19.4 SSE 14 17 1018.9 - 0.0 - - 10 - - - -
21/07:00am 18.9 SSE 14 16 1018.7 - 0.0 - - 10 - - - -
21/06:30am 18.3 SSE 13 16 1018.3 - 0.0 - - 10 - - - -
21/06:00am 18.3 SSE 14 17 1018.0 - 0.0 - - 10 - - - -
21/05:30am 18.4 SE 15 17 1017.7 - 0.0 - - 10 - - - -
21/05:00am 18.4 SE 16 18 1017.3 - 0.0 - - 10 - - - -
21/04:30am 18.4 SSE 15 17 1017.1 - 0.0 - - 10 - - - -
21/04:00am 18.6 SSE 13 15 1017.4 - 0.0 - - 10 - - - -
21/03:30am 18.7 SE 12 14 1017.5 - 0.0 - - 10 - - - -
21/03:00am 18.8 SE 13 15 1017.4 - 0.0 - - 10 - - - -
21/02:30am 18.8 SE 13 15 1017.7 - 0.0 - Partly cloudy 10 - - - -
21/02:00am 18.7 SE 11 12 1018.1 - 0.0 - Partly cloudy 10 - - - -
21/01:30am 19.1 SE 13 15 1018.4 - 0.0 - Partly cloudy 10 - - - -
21/01:00am 19.2 ESE 14 17 1018.5 - 0.0 - - 10 - - - -
21/12:30am 19.3 E 12 14 1018.9 - 0.0 - - 10 - - - -
21/12:00am 19.4 E 12 15 1018.8 - 0.0 - - 10 - - - -
 
Date/Time
EST
Temp

°C
Wind Pressure Rain
since 9am
mm
Weather Cloud Vis
km
Sea
Height
m
Swell
Dir
 
Speed
knots
Gust
knots
hPa Trend Height
m
Period
s
Dir
20/11:30pm 19.5 E 12 15 1019.5 - 0.0 - - 10 - - - -
20/11:00pm 19.4 E 11 13 1019.7 - 0.0 - - 10 - - - -
20/10:30pm 19.4 E 12 15 1019.6 - 0.0 - - 10 - - - -
20/10:00pm 19.4 E 10 12 1019.7 - 0.0 - - 10 - - - -
20/09:30pm 19.4 E 12 16 1019.9 - 0.0 - - 10 - - - -
20/09:00pm 19.6 E 14 17 1019.7 - 0.0 - - 10 - - - -
20/08:30pm 19.6 E 13 17 1019.7 - 0.0 - - 10 - - - -
20/08:00pm 19.6 E 15 18 1019.6 - 0.0 - - 10 - - - -
20/07:30pm 19.7 E 16 19 1019.1 - 0.0 - - 10 - - - -
20/07:00pm 19.8 E 17 20 1018.6 - 0.0 - - 10 - - - -
20/06:30pm 19.6 E 17 19 1018.4 - 0.0 - - 10 - - - -
20/06:00pm 19.4 E 16 19 1017.9 - 0.0 - - 10 - - - -
20/05:30pm 19.5 ESE 16 19 1017.8 - 0.0 - - 10 - - - -
20/05:00pm 19.5 ESE 16 20 1017.5 - 0.0 - - 10 - - - -
20/04:30pm 19.7 ESE 15 18 1017.2 - 0.0 - - 10 - - - -
20/04:00pm 20.1 ESE 14 17 1017.0 - 0.0 - - 10 - - - -
20/03:30pm 20.4 ESE 14 17 1016.9 - 0.0 - - 10 - - - -
20/03:00pm 20.8 ESE 13 16 1016.9 - 0.0 - - 10 - - - -
20/02:30pm 20.9 ESE 13 17 1017.1 - 0.0 - - 10 - - - -
20/02:00pm 21.1 SE 13 16 1017.3 - 0.0 - - 10 - - - -
20/01:30pm 21.6 SE 12 14 1017.4 - 0.0 - - 10 - - - -
20/01:00pm 21.2 SSE 12 14 1017.8 - 0.0 - - 10 - - - -
20/12:30pm 20.2 SSE 11 13 1018.3 - 0.0 - - 10 - - - -
20/12:00pm 20.3 SSE 12 14 1018.5 - 0.0 - - 10 - - - -
20/11:30am 20.0 SSE 13 15 1019.0 - 0.0 - - 10 - - - -
20/11:00am 19.8 SSE 13 16 1019.7 - 0.0 - - 10 - - - -
20/10:30am 19.4 SSE 13 17 1019.9 - 0.0 - - 10 - - - -
20/10:00am 19.7 SSE 14 17 1019.8 - 0.0 - - 10 - - - -
20/09:30am 20.0 SSE 13 17 1020.2 - 0.0 - - 10 - - - -
20/09:00am 19.1 S 10 13 1019.9 - 0.0 - - 10 - - - -
20/08:30am 18.7 SSE 11 16 1019.9 - 0.0 - - 10 - - - -
20/08:00am 18.9 SSE 9 13 1019.6 - 0.0 - - 10 - - - -
20/07:30am 18.6 ESE 4 7 1018.9 - 0.0 - - 10 - - - -
20/07:00am 17.5 S 5 6 1018.6 - 0.0 - - 10 - - - -
20/06:30am 16.7 SW 4 5 1018.3 - 0.0 - - 10 - - - -
20/06:00am 16.7 SW 6 7 1017.9 - 0.0 - - 10 - - - -
20/05:30am 16.6 SW 3 4 1018.0 - 0.0 - - 10 - - - -
20/05:00am 17.0 SSE 4 5 1017.7 - 0.0 - - 10 - - - -
20/04:30am 16.6 SW 3 4 1017.7 - 0.0 - - 10 - - - -
20/04:00am 16.5 WSW 3 3 1017.7 - 0.0 - - 10 - - - -
20/03:30am 16.6 CALM 0 0 1017.6 - 0.0 - - 10 - - - -
20/03:00am 16.8 CALM 0 0 1017.5 - 0.0 - - 10 - - - -
20/02:30am 16.7 CALM 0 0 1017.6 - 0.0 - - 10 - - - -
20/02:00am 16.8 NW 4 6 1017.6 - 0.0 - - 10 - - - -
20/01:30am 16.7 NNW 6 6 1017.8 - 0.0 - - 10 - - - -
20/01:00am 16.9 NNW 6 6 1018.1 - 0.0 - - 10 - - - -
20/12:30am 17.1 NNW 6 6 1018.2 - 0.0 - - 10 - - - -
20/12:00am 16.9 NNW 7 8 1018.4 - 0.0 - - 10 - - - -
 
Date/Time
EST
Temp

°C
Wind Pressure Rain
since 9am
mm
Weather Cloud Vis
km
Sea
Height
m
Swell
Dir
 
Speed
knots
Gust
knots
hPa Trend Height
m
Period
s
Dir
19/11:30pm 17.2 NNW 7 7 1018.5 - 0.0 - - 10 - - - -
19/11:00pm 17.2 NW 6 7 1018.4 - 0.0 - - 10 - - - -
19/10:30pm 17.3 NNW 4 5 1018.4 - 0.0 - - 10 - - - -
19/10:00pm 18.0 CALM 0 0 1018.3 - 0.0 - - 10 - - - -
19/09:30pm 17.6 CALM 0 0 1018.2 - 0.0 - - 10 - - - -
19/09:00pm 18.0 N 4 5 1018.1 - 0.0 - - 10 - - - -
19/08:30pm 18.6 NNE 4 5 1018.0 - 0.0 - - 10 - - - -
19/08:00pm 18.3 NE 2 4 1017.9 - 0.0 - - 10 - - - -
19/07:30pm 18.7 NNE 4 4 1017.6 - 0.0 - - 10 - - - -
19/07:00pm 18.2 NE 4 5 1017.0 - 0.0 - - 10 - - - -
19/06:30pm 18.6 NE 6 7 1016.6 - 0.0 - - 10 - - - -
19/06:00pm 18.7 ENE 7 8 1016.1 - 0.0 - - 10 - - - -
19/05:30pm 19.5 ENE 9 11 1016.0 - 0.0 - - 10 - - - -
19/05:00pm 19.8 ENE 8 11 1015.8 - 0.0 - - 10 - - - -
19/04:30pm 20.0 E 9 11 1015.5 - 0.0 - - 10 - - - -
19/04:00pm 20.1 E 10 11 1015.3 - 0.0 - - 10 - - - -
19/03:30pm 20.1 E 11 14 1015.2 - 0.0 - - 10 - - - -
19/03:00pm 20.6 E 11 14 1015.2 - 0.0 - - 10 - - - -
19/02:30pm 20.8 E 9 11 1015.7 - 0.0 - - 10 - - - -
19/02:00pm 21.1 SE 9 10 1016.2 - 0.0 - - 10 - - - -
19/01:30pm 21.1 SE 10 13 1016.7 - 0.0 - - 10 - - - -
19/01:00pm 21.5 SE 10 12 1016.9 - 0.0 - - 10 - - - -
19/12:30pm 21.1 SSE 11 13 1017.4 - 0.0 - - 10 - - - -
19/12:00pm 21.5 SSE 11 14 1017.8 - 0.0 - - 10 - - - -
19/11:30am 20.9 SSE 11 13 1018.5 - 0.0 - - 10 - - - -
19/11:00am 21.0 SSE 12 15 1019.0 - 0.0 - - 10 - - - -
19/10:30am 20.7 SSE 12 14 1019.8 - 0.0 - - 10 - - - -
19/10:00am 20.6 SSE 13 16 1019.8 - 0.0 - - 10 - - - -
19/09:30am 20.2 SSE 11 14 1020.0 - 0.0 - - 10 - - - -
19/09:00am 20.0 SSE 9 11 1020.0 - 0.0 - - 10 - - - -
19/08:30am 19.9 SSE 10 12 1019.8 - 0.0 - - 10 - - - -
19/08:00am 19.6 SSE 9 11 1019.6 - 0.0 - - 10 - - - -

Other Formats:

Comma delimited format used in spreadsheet applications
http://www.bom.gov.au/fwo/IDQ60701/IDQ60701.94368.axf

JavaScript Object Notation format (JSON) in row-major order
http://www.bom.gov.au/fwo/IDQ60701/IDQ60701.94368.json